Flight Track Log - Related Links

Times and Time Zones

All times are in EDT time to prevent confusion due to time zone crossing. See the SWA3206 flight status page for this flight to view local times or setup timezone preferences in your user account.

Time Position Orientation Groundspeed Altitude Reporting Facility
EDT Latitude Longitude Course Direction KTS MPH feet Rate Location/Type
Mon 02:06:53 PM 41.7842 -87.8386 247° West 225 259 3,600  Level Chicago Center
Mon 02:07:55 PM 41.7567 -87.9272 247° West 246 283 6,400 2,806 Climbing Chicago Center
Mon 02:08:57 PM 41.7814 -88.0281 288° West 288 331 9,400 2,710 Climbing Chicago Center
Mon 02:09:59 PM 41.7883 -88.1622 274° West 314 361 12,000 2,226 Climbing Chicago Center
Mon 02:12:00 PM 41.7412 -88.4561 282° West  Level Estimated
Mon 02:14:07 PM 41.7519 -88.6789 236° Southwest 393 452 20,900  Level Chicago Center
Mon 02:15:09 PM 41.7164 -88.8500 254° West 400 460 23,600 2,226 Climbing Chicago Center
Mon 02:16:11 PM 41.6844 -88.9978 254° West 414 476 25,500 1,790 Climbing Chicago Center
Mon 02:17:13 PM 41.6519 -89.1514 254° West 428 493 27,300 1,548 Climbing Chicago Center
Mon 02:18:15 PM 41.6181 -89.3094 254° West 443 510 28,700 1,415 Climbing Chicago Center
Mon 02:19:00 PM 41.7692 -89.4117 236° Southwest  Level FlightAware Approximate
Mon 02:19:16 PM 41.5833 -89.4714 254° West 454 522 30,200  Level Chicago Center
Mon 02:21:20 PM 41.5061 -89.8206 254° West 453 521 33,900 919 Climbing Chicago Center
Mon 02:23:24 PM 41.4342 -90.1461 254° West 461 531 34,000 19 Climbing Chicago Center
Mon 02:25:00 PM 41.3756 -90.3733 251° West  Level FlightAware Approximate
Mon 02:26:30 PM 41.3133 -90.6675 251° West 468 539 34,000  Level Chicago Center
Mon 02:27:32 PM 41.2669 -90.8233 248° West 459 528 35,300 1,161 Climbing Chicago Center
Mon 02:29:00 PM 41.1895 -91.0181 249° West  Level FlightAware Approximate
Mon 02:29:36 PM 41.1753 -91.1331 249° West 451 519 37,600  Level Chicago Center
Mon 02:30:38 PM 41.1197 -91.3194 248° West 454 522 38,000 128 Climbing Chicago Center
Mon 02:32:00 PM 41.0601 -91.5087 247° West  Level FlightAware Approximate
Mon 02:32:43 PM 41.0256 -91.6297 247° West 453 521 38,000  Level Chicago Center
Mon 02:33:45 PM 40.9769 -91.7886 248° West 452 520 38,000  Level Chicago Center
Mon 02:34:47 PM 40.9306 -91.9394 248° West 448 516 38,000  Level Chicago Center
Mon 02:36:26 PM 40.8572 -92.1775 248° West 444 511 38,000  Level Minneapolis Center
Mon 02:36:51 PM 40.8353 -92.2681 252° West 438 504 38,000  Level Chicago Center
Mon 02:38:30 PM 40.8031 -92.5200 260° West 442 509 38,000  Level Minneapolis Center
Mon 02:38:55 PM 40.7936 -92.5825 259° West 440 506 38,000  Level Chicago Center
Mon 02:39:57 PM 40.7722 -92.7375 260° West 438 504 38,000  Level Chicago Center
Mon 02:40:59 PM 40.7517 -92.8906 260° West 432 497 38,000  Level Chicago Center
Mon 02:41:36 PM 40.7344 -93.0144 260° West 433 498 38,000  Level Minneapolis Center
Mon 02:44:06 PM 40.6828 -93.3803 260° West 432 497 38,000  Level Chicago Center
Mon 02:45:45 PM 40.6439 -93.6322 259° West 442 509 38,000  Level Minneapolis Center
Mon 02:46:47 PM 40.6167 -93.8217 259° West 444 511 38,000  Level Minneapolis Center
Mon 02:48:51 PM 40.5683 -94.1356 259° West 443 510 38,000  Level Minneapolis Center
Mon 02:49:53 PM 40.5400 -94.2914 257° West 441 507 38,000  Level Minneapolis Center
Mon 02:50:55 PM 40.5078 -94.4739 257° West 435 501 38,000  Level Minneapolis Center
Mon 02:52:59 PM 40.4553 -94.7881 258° West 435 501 38,000  Level Minneapolis Center
Mon 02:54:01 PM 40.4292 -94.9411 257° West 432 497 38,000  Level Minneapolis Center
Mon 02:56:05 PM 40.3750 -95.2508 257° West 433 498 38,000  Level Minneapolis Center
Mon 02:57:07 PM 40.3467 -95.4053 257° West 434 499 38,000  Level Minneapolis Center
Mon 02:58:09 PM 40.3194 -95.5594 257° West 433 498 38,000  Level Minneapolis Center
Mon 02:59:11 PM 40.2861 -95.7431 257° West 432 497 38,000  Level Minneapolis Center
Mon 03:01:16 PM 40.2281 -96.0528 256° West 434 499 38,000  Level Minneapolis Center
Mon 03:02:17 PM 40.2061 -96.1744 257° West 432 497 38,000  Level Minneapolis Center
Mon 03:04:34 PM 40.1283 -96.5411 255° West 433 498 38,000  Level Minneapolis Center
Mon 03:05:35 PM 40.0953 -96.6903 254° West 430 495 38,000  Level Minneapolis Center
Mon 03:06:37 PM 40.0567 -96.8678 254° West 425 489 38,000  Level Minneapolis Center
Mon 03:08:00 PM 40.0119 -97.0626 253° West  Level FlightAware Approximate
Mon 03:08:40 PM 39.9917 -97.1633 253° West 424 488 38,000  Level Minneapolis Center
Mon 03:09:42 PM 39.9583 -97.3086 253° West 421 484 38,000  Level Minneapolis Center
Mon 03:10:44 PM 39.9278 -97.4453 254° West 419 482 38,000  Level Minneapolis Center
Mon 03:11:45 PM 39.8878 -97.6186 253° West 417 480 38,000  Level Minneapolis Center
Mon 03:13:48 PM 39.8228 -97.9050 254° West 412 474 38,000  Level Minneapolis Center
Mon 03:15:52 PM 39.7558 -98.1903 253° West 412 474 38,000  Level Minneapolis Center
Mon 03:17:56 PM 39.6889 -98.4719 253° West 408 470 38,000  Level Minneapolis Center
Mon 03:19:00 PM 39.6481 -98.6187 250° West  Level FlightAware Approximate
Mon 03:19:59 PM 39.6153 -98.7817 250° West 408 470 38,000  Level Minneapolis Center
Mon 03:21:01 PM 39.5825 -98.9231 253° West 408 470 38,000  Level Minneapolis Center
Mon 03:22:03 PM 39.5478 -99.0642 252° West 409 471 38,000  Level Minneapolis Center
Mon 03:24:00 PM 39.4792 -99.3345 252° West  Level FlightAware Approximate
Mon 03:24:42 PM 39.4572 -99.4336 252° West 417 480 38,000  Level Denver Center
Mon 03:25:44 PM 39.4189 -99.5911 255° West 414 476 38,000  Level Denver Center
Mon 03:27:11 PM 39.3744 -99.7753 253° West 415 478 38,000  Level Minneapolis Center
Mon 03:28:12 PM 39.3386 -99.9172 252° West 415 478 38,000  Level Minneapolis Center
Mon 03:31:00 PM 39.1723 -100.5884 255° West  Level FlightAware Approximate
Mon 03:33:00 PM 39.1379 -100.5838 250° West  Level Estimated
Mon 03:36:03 PM 39.0867 -101.0381 249° West 408 470 38,000  Level Denver Center
Mon 03:37:05 PM 39.0567 -101.1728 254° West 409 471 38,000  Level Denver Center
Mon 03:38:06 PM 39.0222 -101.3297 254° West 405 466 38,000  Level Denver Center
Mon 03:39:08 PM 38.9933 -101.4617 254° West 405 466 38,000  Level Denver Center
Mon 03:40:00 PM 38.8594 -101.5324 250° West  Level Estimated
Mon 03:40:10 PM 38.9597 -101.6144 254° West 400 460 38,000  Level Denver Center
Mon 03:41:00 PM 38.8189 -101.6674 249° West  Level Estimated
Mon 03:41:12 PM 38.9297 -101.7461 254° West 402 463 38,000  Level Denver Center
Mon 03:43:16 PM 38.8644 -102.0361 254° West 407 468 38,000  Level Denver Center
Mon 03:45:19 PM 38.7978 -102.3286 254° West 414 476 38,000  Level Denver Center
Mon 03:47:23 PM 38.7297 -102.6217 254° West 416 479 38,000  Level Denver Center
Mon 03:49:00 PM 38.6617 -102.8386 254° West  Level FlightAware Approximate
Mon 03:51:30 PM 38.5919 -103.2078 253° West 421 484 38,000  Level Denver Center
Mon 03:52:32 PM 38.5586 -103.3472 253° West 422 486 38,000  Level Denver Center
Mon 03:54:00 PM 38.5056 -103.5471 251° West  Level FlightAware Approximate
Mon 03:54:36 PM 38.4883 -103.6417 251° West 421 484 38,000  Level Denver Center
Mon 03:55:38 PM 38.4494 -103.8011 253° West 423 487 38,000  Level Denver Center
Mon 03:56:00 PM 38.4363 -103.8043 254° West  Level FlightAware Approximate
Mon 03:56:40 PM 38.4164 -103.9356 253° West 419 482 38,000  Level Denver Center
Mon 03:57:00 PM 38.4025 -103.9414 253° West  Level FlightAware Approximate
Mon 03:57:41 PM 38.3786 -104.0925 253° West 418 481 38,000  Level Denver Center
Mon 03:59:00 PM 38.3267 -104.2696 250° West  Level FlightAware Approximate
Mon 03:59:45 PM 38.3064 -104.3808 250° West 411 473 38,000  Level Denver Center
Mon 04:00:47 PM 38.2619 -104.5094 246° West 415 478 38,000  Level Denver Center
Mon 04:01:49 PM 38.2042 -104.6539 243° Southwest 413 475 38,000  Level Denver Center
Mon 04:02:50 PM 38.1542 -104.7775 243° Southwest 412 474 38,000  Level Denver Center
Mon 04:03:52 PM 38.1044 -104.9025 243° Southwest 414 476 38,000  Level Denver Center
Mon 04:04:54 PM 38.0467 -105.0461 243° Southwest 411 473 38,000  Level Denver Center
Mon 04:05:56 PM 37.9958 -105.1714 243° Southwest 417 480 38,000  Level Denver Center
Mon 04:06:58 PM 37.9367 -105.3164 243° Southwest 416 479 38,000  Level Denver Center
Mon 04:07:59 PM 37.8853 -105.4419 243° Southwest 419 482 38,000  Level Denver Center
Mon 04:09:00 PM 37.8307 -105.5694 242° Southwest  Level FlightAware Approximate
Mon 04:10:03 PM 37.7711 -105.7156 242° Southwest 426 490 38,000  Level Denver Center
Mon 04:11:05 PM 37.7111 -105.8600 242° Southwest 419 482 38,000  Level Denver Center
Mon 04:12:07 PM 37.6594 -105.9839 242° Southwest 417 480 38,000  Level Denver Center
Mon 04:13:08 PM 37.6000 -106.1289 243° Southwest 416 479 38,000  Level Denver Center
Mon 04:14:10 PM 37.5447 -106.2581 242° Southwest 411 473 38,000  Level Denver Center
Mon 04:15:12 PM 37.4925 -106.3792 242° Southwest 410 472 38,000  Level Denver Center
Mon 04:17:15 PM 37.3817 -106.6408 242° Southwest 408 470 38,000  Level Denver Center
Mon 04:19:19 PM 37.2733 -106.8839 241° Southwest 409 471 38,000  Level Albuquerque Center
Mon 04:20:20 PM 37.2181 -107.0264 244° Southwest 415 478 38,000  Level Albuquerque Center
Mon 04:21:22 PM 37.1572 -107.1686 242° Southwest 414 476 38,000  Level Albuquerque Center
Mon 04:22:24 PM 37.1044 -107.2906 242° Southwest 415 478 38,000  Level Albuquerque Center
Mon 04:24:27 PM 36.9897 -107.5519 241° Southwest 414 476 38,000  Level Denver Center
Mon 04:25:29 PM 36.9367 -107.6714 241° Southwest 412 474 38,000  Level Denver Center
Mon 04:26:31 PM 36.8753 -107.8125 241° Southwest 413 475 38,000  Level Denver Center
Mon 04:28:34 PM 36.7603 -108.0711 241° Southwest 411 473 38,000  Level Denver Center
Mon 04:30:00 PM 36.6689 -108.2381 243° Southwest  Level FlightAware Approximate
Mon 04:30:38 PM 36.6503 -108.3325 243° Southwest 410 472 38,000  Level Albuquerque Center
Mon 04:31:40 PM 36.5981 -108.4514 241° Southwest 409 471 38,000  Level Albuquerque Center
Mon 04:32:41 PM 36.5375 -108.5911 242° Southwest 412 474 38,000  Level Albuquerque Center
Mon 04:34:00 PM 36.4594 -108.7479 238° Southwest  Level FlightAware Approximate
Mon 04:34:44 PM 36.4347 -108.8325 238° Southwest 417 480 38,000  Level Denver Center
Mon 04:35:46 PM 36.3725 -108.9725 241° Southwest 417 480 38,000  Level Denver Center
Mon 04:36:48 PM 36.3211 -109.0919 242° Southwest 415 478 38,000  Level Denver Center
Mon 04:37:49 PM 36.2592 -109.2325 241° Southwest 419 482 38,000  Level Denver Center
Mon 04:39:53 PM 36.1475 -109.4867 242° Southwest 406 467 38,000  Level Albuquerque Center
Mon 04:40:54 PM 36.0958 -109.6044 242° Southwest 405 466 38,000  Level Denver Center
Mon 04:41:56 PM 36.0353 -109.7406 241° Southwest 406 467 38,000  Level Denver Center
Mon 04:42:58 PM 35.9831 -109.8589 241° Southwest 408 470 38,000  Level Denver Center
Mon 04:43:59 PM 35.9231 -109.9914 241° Southwest 398 458 38,000  Level Denver Center
Mon 04:45:02 PM 35.8669 -110.1047 239° Southwest 402 463 38,000  Level Albuquerque Center
Mon 04:46:04 PM 35.8072 -110.2383 241° Southwest 399 459 38,000  Level Albuquerque Center
Mon 04:47:48 PM 35.7206 -110.4350 242° Southwest 399 459 38,000  Level Los Angeles Center
Mon 04:48:06 PM 35.7025 -110.4789 243° Southwest 396 456 38,000  Level Denver Center
Mon 04:49:09 PM 35.6439 -110.5961 238° Southwest 394 453 38,000  Level Albuquerque Center
Mon 04:50:11 PM 35.5939 -110.7086 241° Southwest 392 451 38,000  Level Albuquerque Center
Mon 04:51:13 PM 35.5317 -110.8372 239° Southwest 392 451 38,000  Level Albuquerque Center
Mon 04:52:15 PM 35.4808 -110.9506 241° Southwest 395 455 38,000  Level Albuquerque Center
Mon 04:53:17 PM 35.4206 -111.0825 241° Southwest 396 456 38,000  Level Albuquerque Center
Mon 04:54:18 PM 35.3678 -111.1942 240° Southwest 396 456 38,000  Level Albuquerque Center
Mon 04:55:20 PM 35.3094 -111.3258 242° Southwest 394 453 38,000  Level Albuquerque Center
Mon 04:56:22 PM 35.2758 -111.4450 251° West 413 475 38,000  Level Albuquerque Center
Mon 04:57:24 PM 35.2331 -111.5672 247° West 403 464 38,000  Level Albuquerque Center
Mon 04:58:26 PM 35.1900 -111.6883 247° West 397 457 38,000  Level Albuquerque Center
Mon 04:59:28 PM 35.1397 -111.8339 247° West 393 452 38,000  Level Albuquerque Center
Mon 05:00:29 PM 35.0972 -111.9561 247° West 392 451 38,000  Level Albuquerque Center
Mon 05:02:00 PM 34.9507 -112.0631 211° Southwest  Level FlightAware Approximate
Mon 05:03:35 PM 34.9664 -112.3278 252° West 397 457 38,000  Level Albuquerque Center
Mon 05:04:37 PM 34.9228 -112.4494 246° West 395 455 38,000  Level Albuquerque Center
Mon 05:06:41 PM 34.8278 -112.7164 247° West 391 450 38,000  Level Albuquerque Center
Mon 05:08:44 PM 34.7414 -112.9592 247° West 391 450 38,000  Level Albuquerque Center
Mon 05:09:00 PM 34.6014 -112.9233 252° West  Level Estimated
Mon 05:09:46 PM 34.6969 -113.0797 246° West 391 450 38,000  Level Albuquerque Center
Mon 05:10:48 PM 34.6517 -113.2006 246° West 392 451 38,000  Level Albuquerque Center
Mon 05:11:50 PM 34.6089 -113.3219 247° West 393 452 38,000  Level Albuquerque Center
Mon 05:12:52 PM 34.5558 -113.4650 246° West 390 449 38,000  Level Albuquerque Center
Mon 05:13:54 PM 34.5117 -113.5861 246° West 392 451 38,000 -422 Level Albuquerque Center
Mon 05:15:57 PM 34.4183 -113.8386 246° West 389 448 36,700 -1,265 Descending Albuquerque Center
Mon 05:16:59 PM 34.3772 -113.9528 246° West 376 433 34,100 -1,306 Descending Albuquerque Center
Mon 05:18:01 PM 34.3333 -114.0628 244° Southwest 367 422 34,000 -290 Descending Albuquerque Center
Mon 05:19:03 PM 34.2933 -114.1750 247° West 364 419 33,500 -726 Descending Albuquerque Center
Mon 05:20:05 PM 34.2506 -114.2886 246° West 368 423 32,500 -732 Descending Albuquerque Center
Mon 05:21:06 PM 34.2075 -114.4028 246° West 372 428 32,000 -244 Descending Albuquerque Center
Mon 05:22:08 PM 34.1656 -114.5144 246° West 368 423 32,000 -556 Level Albuquerque Center
Mon 05:23:48 PM 34.0917 -114.7053 245° Southwest 379 436 30,500 -690 Descending Los Angeles Center
Mon 05:25:02 PM 34.0414 -114.8206 242° Southwest 388 447 30,000 -90 Descending Los Angeles Center
Mon 05:27:00 PM 33.9309 -115.0503 240° Southwest  Level FlightAware Approximate
Mon 05:29:22 PM 33.8192 -115.3214 231° Southwest 387 445 30,000  Level Los Angeles Center
Mon 05:31:00 PM 33.7269 -115.5114 240° Southwest  Level FlightAware Approximate
Mon 05:31:27 PM 33.6964 -115.5939 240° Southwest 388 447 29,700  Level Los Angeles Center
Mon 05:32:28 PM 33.6444 -115.7075 241° Southwest 388 447 28,600 -1,606 Descending Los Angeles Center
Mon 05:34:00 PM 33.5471 -115.8710 231° Southwest  Level FlightAware Approximate
Mon 05:34:00 PM 33.5439 -115.8758 231° Southwest  Level FlightAware Approximate
Mon 05:34:45 PM 33.5211 -115.9333 231° Southwest 363 418 24,400  Level Los Angeles Center
Mon 05:35:47 PM 33.4508 -116.0053 221° Southwest 338 389 23,200 -1,016 Descending Los Angeles Center
Mon 05:36:49 PM 33.3800 -116.0750 219° Southwest 332 382 22,300 -871 Descending Los Angeles Center
Mon 05:37:51 PM 33.2967 -116.1578 220° Southwest 327 376 21,400 -1,194 Descending Los Angeles Center
Mon 05:39:00 PM 33.2603 -116.2838 207° Southwest  Level FlightAware Approximate
Mon 05:39:55 PM 33.1725 -116.2817 207° Southwest 324 373 18,600  Level Los Angeles Center
Mon 05:40:57 PM 33.0919 -116.3608 219° Southwest 318 366 15,000 -3,000 Descending Los Angeles Center
Mon 05:41:59 PM 33.0214 -116.4283 219° Southwest 321 369 12,400 -1,452 Descending Los Angeles Center
Mon 05:43:01 PM 32.9489 -116.4761 209° Southwest 300 345 12,000 -435 Descending Los Angeles Center
Mon 05:44:03 PM 32.8650 -116.5247 206° Southwest 279 321 11,500 -838 Descending Los Angeles Center
Mon 05:45:17 PM 32.8211 -116.5800 227° Southwest 265 305 10,100 -1,147 Descending Los Angeles Center
Mon 05:46:19 PM 32.7811 -116.6631 240° Southwest 245 282 8,900 -1,258 Descending Los Angeles Center
Mon 05:47:21 PM 32.7442 -116.7400 240° Southwest 229 264 7,500 -1,258 Descending Los Angeles Center
Mon 05:48:23 PM 32.7144 -116.8022 240° Southwest 221 254 6,300 -1,113 Descending Los Angeles Center
Mon 05:49:25 PM 32.6906 -116.8683 247° West 218 251 5,200 -926 Descending Los Angeles Center
Mon 05:50:39 PM 32.6728 -116.9319 252° West 209 241 4,200 -1,024 Descending Los Angeles Center
Mon 05:51:28 PM 32.6833 -117.0000 280° West 215 247 3,100 -1,211 Descending Southern California TRACON
Mon 05:52:28 PM 32.7000 -117.0667 287° West 202 232 2,000 -1,050 Descending Southern California TRACON
Mon 05:53:28 PM 32.7167 -117.1167 292° West 160 184 1,000 -1,000 Descending Southern California TRACON

Login

Don't have an account? Register now (free) for customized features, flight alerts, and more!